Time;durP1;ratioP1;P1;durP2;ratioP2;P2;SDS_P1;SDS_P2;PMS_P1;PMS_P2;Temp;Humidity;BMP_temperature;BMP_pressure;BME280_temperature;BME280_humidity;BME280_pressure;Samples;Min_cycle;Max_cycle;Signal;HPM_P1;HPM_P2
2022/01/10 00:02:21;;;;;;;6.10;5.53;;;;;;;3.21;100.00;95648.41;4986722;28;20074;-52
2022/01/10 00:04:50;;;;;;;7.30;5.68;;;;;;;3.09;100.00;95638.94;4992844;28;20108;-52
2022/01/10 00:07:19;;;;;;;7.20;6.07;;;;;;;3.19;100.00;95639.03;4993447;28;20111;-53
2022/01/10 00:09:47;;;;;;;6.22;5.55;;;;;;;3.11;100.00;95642.25;5004398;28;20433;-56
2022/01/10 00:12:17;;;;;;;8.07;5.90;;;;;;;2.99;100.00;95633.59;5000831;28;20450;-55
2022/01/10 00:14:45;;;;;;;10.17;5.97;;;;;;;2.81;100.00;95633.25;4994664;28;20073;-56
2022/01/10 00:17:14;;;;;;;6.95;5.78;;;;;;;3.18;100.00;95634.78;5002780;28;20359;-52
2022/01/10 00:19:42;;;;;;;6.38;5.43;;;;;;;2.92;100.00;95622.00;4990832;28;20093;-57
2022/01/10 00:22:11;;;;;;;8.07;5.93;;;;;;;2.88;100.00;95632.78;4995975;28;20125;-55
2022/01/10 00:24:40;;;;;;;6.75;5.57;;;;;;;2.87;100.00;95623.31;4997216;28;20080;-55
2022/01/10 00:27:09;;;;;;;8.27;5.57;;;;;;;2.77;100.00;95626.63;4985396;28;20070;-50
2022/01/10 00:29:39;;;;;;;8.07;5.97;;;;;;;2.77;100.00;95631.00;4976934;28;20072;-51
2022/01/10 00:32:07;;;;;;;9.57;6.53;;;;;;;2.86;100.00;95625.09;4978749;28;20700;-56
2022/01/10 00:34:36;;;;;;;6.20;5.57;;;;;;;2.79;100.00;95626.53;4995286;28;20524;-58
2022/01/10 00:37:04;;;;;;;6.22;5.63;;;;;;;2.80;100.00;95633.38;5000923;28;20086;-56
2022/01/10 00:39:33;;;;;;;7.30;6.20;;;;;;;2.70;100.00;95635.03;4993950;28;20084;-57
2022/01/10 00:42:01;;;;;;;7.70;6.80;;;;;;;2.84;100.00;95627.81;5009694;28;20066;-58
2022/01/10 00:44:31;;;;;;;8.05;6.78;;;;;;;2.85;100.00;95636.44;4984986;28;20540;-57
2022/01/10 00:47:01;;;;;;;8.63;5.95;;;;;;;2.75;100.00;95632.88;4986880;28;20072;-57
2022/01/10 00:49:30;;;;;;;8.75;6.60;;;;;;;2.76;100.00;95634.56;4994894;28;20089;-58
2022/01/10 00:51:58;;;;;;;9.52;6.50;;;;;;;2.77;100.00;95631.00;5004665;28;20081;-59
2022/01/10 00:54:26;;;;;;;7.00;6.28;;;;;;;2.62;100.00;95627.81;5007672;28;20056;-60
2022/01/10 00:56:55;;;;;;;8.43;6.30;;;;;;;2.58;100.00;95635.00;4986265;28;20070;-55
2022/01/10 00:59:23;;;;;;;8.10;6.68;;;;;;;2.83;100.00;95636.56;4989314;28;21400;-58
2022/01/10 01:01:51;;;;;;;7.75;6.65;;;;;;;2.82;100.00;95641.88;5004312;28;20073;-54
2022/01/10 01:04:21;;;;;;;7.88;6.90;;;;;;;3.09;100.00;95647.56;4997587;28;20078;-56
2022/01/10 01:06:50;;;;;;;9.70;6.55;;;;;;;3.13;100.00;95649.94;5003436;28;20477;-55
2022/01/10 01:09:23;;;;;;;8.05;6.28;;;;;;;3.05;100.00;95656.56;5004985;28;20558;-58
2022/01/10 01:14:57;;;;;;;9.60;6.72;;;;;;;2.92;100.00;95666.25;5047763;27;20599;-58
2022/01/10 01:17:46;;;;;;;8.35;6.90;;;;;;;2.81;100.00;95682.72;5004387;28;20522;-57
2022/01/10 01:20:42;;;;;;;7.70;6.32;;;;;;;3.00;100.00;95683.94;5016243;28;20135;-49
2022/01/10 01:26:01;;;;;;;7.70;6.70;;;;;;;2.77;100.00;95688.28;5039883;28;20068;-52
2022/01/10 01:28:30;;;;;;;8.75;6.93;;;;;;;2.79;100.00;95687.22;5043725;28;20079;-52
2022/01/10 01:31:00;;;;;;;7.90;6.85;;;;;;;2.88;100.00;95687.47;5041318;28;20068;-50
2022/01/10 01:33:29;;;;;;;8.07;6.93;;;;;;;2.76;100.00;95692.66;5040195;28;20467;-55
2022/01/10 01:35:57;;;;;;;8.93;6.70;;;;;;;2.72;100.00;95696.44;5040423;28;20073;-51
2022/01/10 01:38:26;;;;;;;8.80;6.65;;;;;;;2.85;100.00;95707.56;5040537;28;20065;-50
2022/01/10 01:41:08;;;;;;;7.97;6.90;;;;;;;2.72;100.00;95700.78;5038970;28;20068;-52
2022/01/10 01:43:37;;;;;;;9.95;6.95;;;;;;;2.76;100.00;95704.84;5039608;28;20088;-56
2022/01/10 01:46:07;;;;;;;10.35;7.90;;;;;;;2.60;100.00;95712.97;5041668;28;20183;-57
2022/01/10 01:48:35;;;;;;;8.40;7.35;;;;;;;2.97;100.00;95707.59;5039048;28;20065;-56
2022/01/10 01:51:04;;;;;;;9.07;7.10;;;;;;;3.05;100.00;95716.47;5037733;28;20546;-53
2022/01/10 01:53:33;;;;;;;9.57;7.13;;;;;;;2.66;100.00;95716.91;5043664;28;20075;-54
2022/01/10 01:56:02;;;;;;;9.70;7.50;;;;;;;2.98;100.00;95719.66;5040367;28;20077;-57
2022/01/10 01:58:30;;;;;;;8.68;7.25;;;;;;;3.20;100.00;95724.06;5040688;28;20147;-56
2022/01/10 02:00:59;;;;;;;9.70;7.18;;;;;;;3.24;100.00;95720.28;5048342;28;20072;-54
2022/01/10 02:03:29;;;;;;;9.55;6.72;;;;;;;3.35;100.00;95724.69;5040901;28;20068;-54
2022/01/10 02:05:57;;;;;;;9.30;7.38;;;;;;;3.33;100.00;95727.38;5039570;28;20072;-54
2022/01/10 02:08:26;;;;;;;7.72;6.93;;;;;;;3.38;100.00;95732.25;5040027;28;20447;-56
2022/01/10 02:10:55;;;;;;;11.63;7.28;;;;;;;3.46;100.00;95738.53;5041135;28;20053;-55
2022/01/10 02:13:23;;;;;;;8.25;7.28;;;;;;;3.38;100.00;95738.28;5042528;28;20088;-55
2022/01/10 02:15:58;;;;;;;10.60;6.95;;;;;;;2.75;100.00;95739.63;5040727;28;20084;-55
2022/01/10 02:18:27;;;;;;;8.07;7.00;;;;;;;2.56;100.00;95747.97;5040828;28;20057;-56
2022/01/10 02:21:00;;;;;;;8.05;7.28;;;;;;;2.44;100.00;95756.66;5037583;28;20068;-54
2022/01/10 02:23:29;;;;;;;8.38;7.50;;;;;;;2.55;100.00;95761.94;5035178;28;20152;-50
2022/01/10 02:25:57;;;;;;;8.48;7.13;;;;;;;2.53;100.00;95766.41;5028280;28;20080;-55
2022/01/10 02:28:26;;;;;;;8.82;7.80;;;;;;;2.73;100.00;95772.75;5028796;28;20081;-58
2022/01/10 02:30:57;;;;;;;9.57;7.50;;;;;;;2.87;100.00;95767.34;5022850;28;20101;-49
2022/01/10 02:33:27;;;;;;;12.05;7.70;;;;;;;3.08;100.00;95775.31;5025041;28;20162;-57
2022/01/10 02:36:05;;;;;;;8.65;7.40;;;;;;;3.24;100.00;95775.84;5026881;28;20080;-52
2022/01/10 02:38:33;;;;;;;8.23;7.20;;;;;;;3.16;100.00;95772.13;5026315;28;20515;-51
2022/01/10 02:41:02;;;;;;;9.38;7.70;;;;;;;3.08;100.00;95778.75;5023965;28;20460;-51
2022/01/10 02:43:31;;;;;;;8.63;7.70;;;;;;;3.12;100.00;95781.13;5024791;28;20077;-56
2022/01/10 02:45:59;;;;;;;9.73;7.95;;;;;;;3.24;100.00;95777.59;5028475;28;20597;-57
2022/01/10 02:48:28;;;;;;;9.55;8.15;;;;;;;3.13;100.00;95781.00;5025878;28;20083;-49
2022/01/10 02:50:58;;;;;;;10.48;8.05;;;;;;;3.21;100.00;95790.88;5025211;28;20695;-54
2022/01/10 02:53:26;;;;;;;8.82;7.90;;;;;;;3.29;100.00;95788.50;5026660;28;20076;-55
2022/01/10 02:55:54;;;;;;;10.52;8.00;;;;;;;3.26;100.00;95793.94;5023721;28;20064;-55
2022/01/10 02:58:23;;;;;;;10.90;7.95;;;;;;;3.19;100.00;95792.75;5027221;28;20095;-51
2022/01/10 03:00:51;;;;;;;10.40;7.85;;;;;;;3.13;100.00;95798.41;5027733;28;20061;-52
2022/01/10 03:03:20;;;;;;;10.77;8.32;;;;;;;2.98;100.00;95798.63;5025737;28;20065;-53
2022/01/10 03:05:48;;;;;;;9.90;8.25;;;;;;;2.98;100.00;95805.59;5024194;28;20088;-51
2022/01/10 03:08:18;;;;;;;10.30;7.63;;;;;;;2.70;100.00;95809.41;5024723;28;20068;-55
2022/01/10 03:10:46;;;;;;;9.30;8.20;;;;;;;2.94;100.00;95809.38;5026397;28;20056;-55
2022/01/10 03:13:15;;;;;;;9.73;8.10;;;;;;;2.70;100.00;95812.84;5024025;28;20108;-52
2022/01/10 03:15:43;;;;;;;9.88;8.10;;;;;;;2.73;100.00;95817.00;5024003;28;20065;-53
2022/01/10 03:18:11;;;;;;;9.77;8.10;;;;;;;3.13;100.00;95817.47;5025102;28;20037;-48
2022/01/10 03:20:40;;;;;;;9.10;7.80;;;;;;;3.27;100.00;95812.06;5023999;28;20488;-53
2022/01/10 03:23:09;;;;;;;8.57;7.72;;;;;;;3.08;100.00;95825.63;5024137;28;20069;-52
2022/01/10 03:25:39;;;;;;;10.60;8.18;;;;;;;3.15;100.00;95830.41;5026257;28;20085;-53
2022/01/10 03:28:10;;;;;;;9.43;8.30;;;;;;;3.26;100.00;95828.63;5027968;28;20073;-57
2022/01/10 03:30:38;;;;;;;10.63;8.35;;;;;;;3.33;100.00;95824.63;5024490;28;20080;-58
2022/01/10 03:33:08;;;;;;;9.55;8.15;;;;;;;3.48;100.00;95835.69;5022718;28;20072;-60
2022/01/10 03:35:37;;;;;;;9.73;8.15;;;;;;;3.44;100.00;95836.88;5026085;28;20091;-55
2022/01/10 03:38:05;;;;;;;9.95;8.25;;;;;;;3.53;100.00;95828.31;5024014;28;20061;-55
2022/01/10 03:40:33;;;;;;;9.88;8.52;;;;;;;3.47;100.00;95844.41;5023471;28;20096;-51
2022/01/10 03:43:04;;;;;;;11.05;8.65;;;;;;;3.25;100.00;95844.41;5026364;28;20088;-54
2022/01/10 03:45:33;;;;;;;9.13;7.68;;;;;;;2.85;100.00;95845.56;5024375;28;20065;-51
2022/01/10 03:48:01;;;;;;;10.38;8.25;;;;;;;2.72;100.00;95838.75;5024141;28;20470;-50
2022/01/10 03:50:30;;;;;;;10.00;8.15;;;;;;;2.64;100.00;95844.53;5028250;28;20076;-56
2022/01/10 03:52:58;;;;;;;10.63;8.50;;;;;;;2.79;100.00;95846.03;5025707;28;20413;-62
2022/01/10 03:55:27;;;;;;;10.23;7.72;;;;;;;2.82;100.00;95847.56;5026699;28;20073;-62
2022/01/10 03:57:55;;;;;;;9.40;8.40;;;;;;;2.78;100.00;95848.72;5022954;28;20675;-62
2022/01/10 04:00:25;;;;;;;9.95;8.55;;;;;;;3.00;100.00;95851.44;5026921;28;20088;-63
2022/01/10 04:02:58;;;;;;;10.50;8.55;;;;;;;3.17;100.00;95857.19;5023377;28;20068;-62
2022/01/10 04:05:26;;;;;;;9.82;8.55;;;;;;;3.20;100.00;95863.00;5025860;28;20069;-62
2022/01/10 04:07:55;;;;;;;9.82;8.82;;;;;;;3.20;100.00;95865.59;5017098;28;20737;-61
2022/01/10 04:10:23;;;;;;;9.95;8.70;;;;;;;3.04;100.00;95875.47;5025491;28;20088;-60
2022/01/10 04:12:51;;;;;;;10.95;9.00;;;;;;;3.28;100.00;95878.03;5023802;28;20068;-62
2022/01/10 04:15:20;;;;;;;12.23;9.18;;;;;;;3.32;100.00;95882.91;5028595;28;20550;-62
2022/01/10 04:18:08;;;;;;;9.90;8.70;;;;;;;3.24;100.00;95887.03;5025863;28;20056;-62
2022/01/10 04:20:41;;;;;;;10.77;8.75;;;;;;;3.18;100.00;95884.88;5021272;28;20080;-62
2022/01/10 04:23:10;;;;;;;12.38;8.85;;;;;;;3.32;100.00;95882.06;5022189;28;20061;-61
2022/01/10 04:25:38;;;;;;;11.20;9.10;;;;;;;3.15;100.00;95885.09;5027078;28;20073;-62
2022/01/10 04:28:07;;;;;;;11.98;9.25;;;;;;;2.87;100.00;95892.34;5025982;28;20555;-62
2022/01/10 04:30:36;;;;;;;11.90;10.20;;;;;;;2.72;100.00;95893.41;5022910;28;20069;-62
2022/01/10 04:33:05;;;;;;;14.32;10.85;;;;;;;2.91;100.00;95901.56;5022658;28;21891;-61
2022/01/10 04:35:34;;;;;;;12.30;9.90;;;;;;;2.89;100.00;95897.41;5025807;28;20886;-62
2022/01/10 04:38:08;;;;;;;11.75;9.65;;;;;;;3.09;100.00;95892.41;5022894;28;20527;-61
2022/01/10 04:40:36;;;;;;;13.05;9.55;;;;;;;2.78;100.00;95901.63;5026047;28;20663;-62
2022/01/10 04:43:05;;;;;;;13.18;10.25;;;;;;;2.91;100.00;95904.19;5024393;28;20519;-61
2022/01/10 04:45:33;;;;;;;11.60;9.55;;;;;;;2.74;100.00;95910.59;5025159;28;20084;-63
2022/01/10 04:48:01;;;;;;;11.65;10.00;;;;;;;2.78;100.00;95912.03;5022796;28;20479;-62
2022/01/10 04:50:58;;;;;;;11.07;9.23;;;;;;;3.00;100.00;95913.13;5022356;28;20448;-62
2022/01/10 04:53:26;;;;;;;12.10;9.13;;;;;;;2.74;100.00;95914.97;5020260;28;20551;-60
2022/01/10 04:55:55;;;;;;;10.88;9.57;;;;;;;2.62;100.00;95927.13;5024204;28;20140;-62
2022/01/10 04:58:23;;;;;;;11.85;9.60;;;;;;;2.83;100.00;95928.19;5023195;28;20080;-62
2022/01/10 05:00:53;;;;;;;11.90;9.73;;;;;;;2.66;100.00;95933.75;5022539;28;20088;-62
2022/01/10 05:03:22;;;;;;;14.70;9.68;;;;;;;2.93;100.00;95933.56;5019597;28;20065;-62
2022/01/10 05:05:53;;;;;;;13.18;9.55;;;;;;;2.64;100.00;95943.44;5023238;28;20076;-61
2022/01/10 05:08:41;;;;;;;12.13;9.93;;;;;;;2.46;100.00;95945.56;5025501;28;20045;-62
2022/01/10 05:11:10;;;;;;;14.40;10.95;;;;;;;2.76;100.00;95944.34;5023815;28;20072;-62
2022/01/10 05:13:38;;;;;;;11.18;9.65;;;;;;;2.53;100.00;95953.78;5022560;28;20093;-62
2022/01/10 05:16:07;;;;;;;11.45;8.90;;;;;;;2.64;100.00;95953.84;5026039;28;20077;-62
2022/01/10 05:18:36;;;;;;;12.27;9.93;;;;;;;2.41;100.00;95957.22;5024945;28;20073;-62
2022/01/10 05:21:04;;;;;;;13.15;9.73;;;;;;;2.63;100.00;95959.19;5023508;28;20077;-62
2022/01/10 05:23:33;;;;;;;14.88;10.32;;;;;;;2.94;100.00;95971.66;5022475;28;20073;-62
2022/01/10 05:26:03;;;;;;;12.65;9.75;;;;;;;3.23;100.00;95972.16;5025427;28;20069;-62
2022/01/10 05:28:31;;;;;;;12.50;10.15;;;;;;;3.19;100.00;95972.50;5023327;28;20555;-62
2022/01/10 05:31:01;;;;;;;14.85;10.20;;;;;;;3.26;100.00;95978.94;5024485;28;20081;-62
2022/01/10 05:33:30;;;;;;;13.15;10.00;;;;;;;3.27;100.00;95980.63;5023919;28;20074;-62
2022/01/10 05:35:58;;;;;;;15.32;9.90;;;;;;;3.33;100.00;95983.56;5029522;28;20464;-61
2022/01/10 05:38:26;;;;;;;12.15;9.95;;;;;;;3.33;100.00;95987.97;5023421;28;20069;-62
2022/01/10 05:40:55;;;;;;;13.88;10.07;;;;;;;3.25;100.00;95996.34;5023713;28;20579;-61
2022/01/10 05:43:24;;;;;;;12.73;10.00;;;;;;;3.44;100.00;96000.19;5026605;28;20073;-62
2022/01/10 05:45:53;;;;;;;13.85;9.68;;;;;;;3.41;100.00;96005.66;5026659;28;20515;-61
2022/01/10 05:48:25;;;;;;;13.40;9.68;;;;;;;3.48;100.00;96012.91;5022372;28;20507;-62
2022/01/10 05:50:54;;;;;;;14.25;9.65;;;;;;;3.33;100.00;96014.03;5025734;28;20061;-62
2022/01/10 05:53:23;;;;;;;13.60;9.25;;;;;;;3.30;100.00;96011.63;5023497;28;20064;-61
2022/01/10 05:55:51;;;;;;;14.93;9.77;;;;;;;3.31;100.00;96016.75;5022478;28;20060;-62
2022/01/10 05:58:20;;;;;;;13.95;9.90;;;;;;;3.33;100.00;96020.06;5024907;28;20073;-62
2022/01/10 06:00:50;;;;;;;13.23;9.93;;;;;;;3.47;100.00;96026.03;5026620;28;20069;-62
2022/01/10 06:03:18;;;;;;;13.48;10.55;;;;;;;3.45;100.00;96025.34;5025919;28;20088;-61
2022/01/10 06:05:47;;;;;;;12.35;9.70;;;;;;;3.47;100.00;96039.06;5026481;28;20498;-62
2022/01/10 06:08:15;;;;;;;13.50;10.05;;;;;;;3.27;100.00;96024.91;5026085;28;20069;-62
2022/01/10 06:10:45;;;;;;;15.95;10.05;;;;;;;3.27;100.00;96040.53;5030427;28;20561;-62
2022/01/10 06:13:13;;;;;;;14.05;10.40;;;;;;;3.48;100.00;96041.59;5028014;28;20331;-61
2022/01/10 06:15:42;;;;;;;14.07;10.32;;;;;;;3.57;100.00;96047.91;5026430;28;20084;-62
2022/01/10 06:18:11;;;;;;;14.52;10.07;;;;;;;3.70;100.00;96048.66;5027404;28;20656;-62
2022/01/10 06:20:40;;;;;;;13.87;10.20;;;;;;;3.65;100.00;96056.00;5030327;28;20095;-62
2022/01/10 06:23:09;;;;;;;13.20;9.73;;;;;;;3.72;100.00;96059.00;5026321;28;21036;-62
2022/01/10 06:25:38;;;;;;;12.73;9.75;;;;;;;3.62;100.00;96060.63;5027232;28;20096;-61
2022/01/10 06:28:06;;;;;;;13.00;10.32;;;;;;;3.59;100.00;96064.28;5027565;28;20065;-62
2022/01/10 06:30:35;;;;;;;14.77;10.65;;;;;;;3.48;100.00;96069.44;5027981;28;20141;-61
2022/01/10 06:33:04;;;;;;;16.52;10.50;;;;;;;3.41;100.00;96074.25;5021691;28;20064;-62
2022/01/10 06:35:35;;;;;;;17.38;10.90;;;;;;;3.38;100.00;96066.66;5028467;28;20511;-61
2022/01/10 06:38:04;;;;;;;16.40;11.40;;;;;;;3.30;100.00;96074.16;5026277;28;20100;-62
2022/01/10 06:40:32;;;;;;;17.55;10.73;;;;;;;3.28;100.00;96078.69;5025062;28;20088;-61
2022/01/10 06:43:01;;;;;;;12.95;10.25;;;;;;;3.18;100.00;96085.47;5028355;28;20080;-62
2022/01/10 06:45:29;;;;;;;16.08;10.85;;;;;;;3.20;100.00;96088.78;5030006;28;20069;-62
2022/01/10 06:47:58;;;;;;;15.57;11.15;;;;;;;3.13;100.00;96095.38;5024710;28;20079;-63
2022/01/10 06:50:27;;;;;;;15.48;11.30;;;;;;;2.97;100.00;96100.84;5025980;28;20120;-62
2022/01/10 06:52:57;;;;;;;16.58;10.82;;;;;;;2.97;100.00;96108.66;5026907;28;20073;-62
2022/01/10 06:55:25;;;;;;;16.27;11.20;;;;;;;2.88;100.00;96112.72;5030647;28;20096;-62
2022/01/10 06:57:54;;;;;;;14.40;10.93;;;;;;;3.11;100.00;96118.13;5028446;28;20441;-62
2022/01/10 07:00:34;;;;;;;15.10;10.95;;;;;;;3.08;100.00;96124.38;5026367;28;20396;-62
2022/01/10 07:03:02;;;;;;;15.98;11.18;;;;;;;3.17;100.00;96135.94;5026582;28;20068;-63
2022/01/10 07:05:31;;;;;;;16.75;11.23;;;;;;;3.21;100.00;96135.59;5028492;28;20069;-62
2022/01/10 07:08:20;;;;;;;16.15;10.68;;;;;;;3.29;100.00;96145.47;5025782;28;20047;-62
2022/01/10 07:10:48;;;;;;;15.52;11.25;;;;;;;3.33;100.00;96149.53;5026421;28;20077;-62
2022/01/10 07:13:17;;;;;;;17.45;11.43;;;;;;;3.45;100.00;96156.50;5029748;28;20076;-62
2022/01/10 07:15:45;;;;;;;17.67;12.07;;;;;;;3.48;100.00;96156.28;5025251;28;20075;-61
2022/01/10 07:18:14;;;;;;;18.73;11.98;;;;;;;3.49;100.00;96155.34;5024941;28;20065;-62
2022/01/10 07:20:42;;;;;;;19.20;12.20;;;;;;;3.52;100.00;96162.94;5026599;28;20073;-62
2022/01/10 07:23:10;;;;;;;17.75;11.85;;;;;;;3.67;100.00;96171.44;5025798;28;20076;-62
2022/01/10 07:25:40;;;;;;;15.93;11.45;;;;;;;3.69;100.00;96169.56;5025231;28;20085;-62
2022/01/10 07:28:08;;;;;;;22.40;11.40;;;;;;;3.63;100.00;96177.81;5026811;28;20685;-62
2022/01/10 07:30:37;;;;;;;18.90;11.77;;;;;;;3.55;100.00;96182.75;5026930;28;21487;-60
2022/01/10 07:33:05;;;;;;;17.30;12.00;;;;;;;3.55;100.00;96185.34;5025096;28;20084;-62
2022/01/10 07:35:34;;;;;;;17.27;11.80;;;;;;;3.61;100.00;96194.50;5025383;28;20069;-62
2022/01/10 07:38:03;;;;;;;17.42;11.20;;;;;;;3.69;100.00;96194.81;5027395;28;20073;-62
2022/01/10 07:40:31;;;;;;;15.90;11.13;;;;;;;3.66;100.00;96197.63;5025086;28;20077;-61
2022/01/10 07:43:01;;;;;;;17.30;11.90;;;;;;;3.66;100.00;96202.84;5027435;28;20112;-62
2022/01/10 07:45:29;;;;;;;18.30;12.07;;;;;;;3.80;100.00;96208.75;5025023;28;20061;-62
2022/01/10 07:47:58;;;;;;;17.98;11.77;;;;;;;3.92;100.00;96214.00;5026792;28;20452;-62
2022/01/10 07:50:27;;;;;;;16.83;11.45;;;;;;;3.94;100.00;96220.78;5025765;28;20073;-62
2022/01/10 07:52:55;;;;;;;19.38;12.02;;;;;;;4.03;100.00;96220.16;5024945;28;20456;-62
2022/01/10 07:55:23;;;;;;;16.75;11.73;;;;;;;3.95;100.00;96227.66;5027105;28;20161;-63
2022/01/10 07:57:52;;;;;;;16.48;11.13;;;;;;;3.95;100.00;96224.22;5026740;28;20468;-61
2022/01/10 08:00:22;;;;;;;19.45;11.80;;;;;;;3.87;100.00;96237.00;5023228;28;20079;-62
2022/01/10 08:02:50;;;;;;;18.75;12.25;;;;;;;3.94;100.00;96236.44;5024967;28;20111;-61
2022/01/10 08:05:19;;;;;;;21.08;12.95;;;;;;;4.00;100.00;96236.03;5025898;28;20080;-61
2022/01/10 08:07:47;;;;;;;18.70;12.60;;;;;;;3.99;100.00;96246.53;5024884;28;20080;-61
2022/01/10 08:10:15;;;;;;;16.42;12.27;;;;;;;3.97;100.00;96246.66;5025925;28;20081;-63
2022/01/10 08:12:44;;;;;;;19.63;12.55;;;;;;;3.84;100.00;96252.88;5028670;28;20069;-62
2022/01/10 08:15:12;;;;;;;17.83;11.93;;;;;;;3.83;100.00;96256.41;5025576;28;20081;-62
2022/01/10 08:17:42;;;;;;;17.77;12.27;;;;;;;3.72;100.00;96265.00;5024693;28;20472;-62
2022/01/10 08:20:12;;;;;;;21.25;12.95;;;;;;;3.80;100.00;96266.13;5023323;28;20069;-62
2022/01/10 08:22:40;;;;;;;24.15;13.02;;;;;;;3.89;100.00;96267.25;5026807;28;20085;-62
2022/01/10 08:25:10;;;;;;;19.88;13.10;;;;;;;4.10;100.00;96274.50;5027005;28;20092;-62
2022/01/10 08:27:38;;;;;;;20.10;12.93;;;;;;;4.00;100.00;96272.53;5023969;28;20064;-62
2022/01/10 08:30:08;;;;;;;21.17;12.40;;;;;;;4.00;100.00;96282.16;5023794;28;20061;-62
2022/01/10 08:32:36;;;;;;;21.90;13.02;;;;;;;4.12;100.00;96283.88;5027184;28;20099;-63
2022/01/10 08:35:07;;;;;;;19.88;13.32;;;;;;;4.21;100.00;96291.06;5023445;28;20516;-63
2022/01/10 08:37:36;;;;;;;24.65;13.82;;;;;;;4.11;100.00;96290.03;5020989;28;20095;-62
2022/01/10 08:40:05;;;;;;;20.58;12.30;;;;;;;4.04;100.00;96289.63;5026913;28;20080;-62
2022/01/10 08:42:33;;;;;;;21.40;13.25;;;;;;;3.89;100.00;96292.47;5021925;28;20080;-62
2022/01/10 08:45:02;;;;;;;20.60;14.05;;;;;;;3.91;100.00;96296.66;5024731;28;20064;-62
2022/01/10 08:47:30;;;;;;;22.15;13.18;;;;;;;3.85;100.00;96298.88;5027258;28;20498;-62
2022/01/10 08:49:58;;;;;;;20.75;13.23;;;;;;;3.95;100.00;96303.31;5024749;28;20133;-63
2022/01/10 08:52:28;;;;;;;20.75;13.00;;;;;;;3.96;100.00;96309.41;5025953;28;20484;-63
2022/01/10 08:54:57;;;;;;;22.42;13.65;;;;;;;3.87;100.00;96313.47;5022410;28;20249;-63
2022/01/10 08:57:26;;;;;;;21.25;13.07;;;;;;;3.95;100.00;96318.97;5025520;28;20065;-62
2022/01/10 08:59:54;;;;;;;21.27;12.95;;;;;;;4.01;100.00;96315.13;5023687;28;20625;-63
2022/01/10 09:02:22;;;;;;;23.83;13.73;;;;;;;4.15;100.00;96320.19;5024033;28;20069;-62
2022/01/10 09:04:51;;;;;;;18.85;13.05;;;;;;;4.18;100.00;96329.59;5023535;28;20080;-63
2022/01/10 09:07:20;;;;;;;22.65;13.18;;;;;;;4.47;100.00;96327.50;5029554;28;20092;-62
2022/01/10 09:09:49;;;;;;;20.40;13.88;;;;;;;4.69;100.00;96325.00;5024008;28;20065;-64
2022/01/10 09:12:18;;;;;;;20.73;13.57;;;;;;;4.96;100.00;96337.84;5023388;28;20060;-64
2022/01/10 09:14:47;;;;;;;22.85;13.50;;;;;;;5.20;100.00;96344.81;5025193;28;20487;-63
2022/01/10 09:17:15;;;;;;;19.52;13.63;;;;;;;5.30;100.00;96345.78;5023883;28;20042;-62
2022/01/10 09:19:46;;;;;;;19.50;13.10;;;;;;;5.39;100.00;96352.91;5022667;28;20081;-62
2022/01/10 09:22:15;;;;;;;22.80;13.73;;;;;;;5.53;100.00;96358.91;5025684;28;20092;-63
2022/01/10 09:24:46;;;;;;;20.55;13.75;;;;;;;5.51;100.00;96368.66;5024619;28;20073;-64
2022/01/10 09:27:16;;;;;;;21.05;13.70;;;;;;;5.63;100.00;96372.94;5023578;28;20084;-64
2022/01/10 09:29:46;;;;;;;21.75;13.95;;;;;;;5.78;100.00;96373.56;5022379;28;20070;-63
2022/01/10 09:32:15;;;;;;;22.33;14.02;;;;;;;5.69;100.00;96373.31;5026052;28;20073;-63
2022/01/10 09:34:43;;;;;;;20.95;13.88;;;;;;;5.82;100.00;96378.47;5025109;28;20077;-63
2022/01/10 09:37:11;;;;;;;23.13;14.13;;;;;;;5.94;100.00;96382.75;5029108;28;20084;-64
2022/01/10 09:39:40;;;;;;;24.27;14.02;;;;;;;5.94;100.00;96388.00;5027681;28;20073;-63
2022/01/10 09:42:12;;;;;;;23.33;13.55;;;;;;;5.71;100.00;96394.13;5030577;28;20070;-63
2022/01/10 09:44:42;;;;;;;23.50;14.68;;;;;;;5.96;100.00;96390.50;5027110;28;20084;-64
2022/01/10 09:47:10;;;;;;;19.53;13.03;;;;;;;5.18;100.00;96393.75;5027357;28;20061;-63
2022/01/10 09:49:39;;;;;;;20.50;13.88;;;;;;;5.25;100.00;96400.19;5030558;28;20524;-63
2022/01/10 09:52:27;;;;;;;19.60;13.13;;;;;;;5.12;100.00;96409.88;5030307;28;20060;-63
2022/01/10 09:54:55;;;;;;;19.58;12.32;;;;;;;5.05;100.00;96412.09;5007056;28;20419;-63
2022/01/10 09:57:23;;;;;;;19.73;13.88;;;;;;;5.32;100.00;96411.03;5008289;28;20073;-64
2022/01/10 09:59:53;;;;;;;18.83;11.93;;;;;;;5.10;100.00;96423.06;5007522;28;20549;-63
2022/01/10 10:02:23;;;;;;;21.60;12.67;;;;;;;5.18;100.00;96422.50;5009639;28;20069;-63
2022/01/10 10:04:53;;;;;;;19.65;13.02;;;;;;;5.12;100.00;96423.75;5006095;28;20068;-63
2022/01/10 10:07:23;;;;;;;19.02;13.00;;;;;;;5.32;100.00;96426.72;5009898;28;20093;-63
2022/01/10 10:09:52;;;;;;;;;;;;;;;5.11;100.00;96429.13;5007412;28;20069;-64
2022/01/10 10:12:20;;;;;;;20.25;12.73;;;;;;;4.92;100.00;96427.00;5009628;28;20352;-64
2022/01/10 10:14:50;;;;;;;23.50;13.15;;;;;;;5.11;100.00;96431.72;5007838;28;20073;-63
2022/01/10 10:17:21;;;;;;;18.27;11.50;;;;;;;4.86;100.00;96437.91;5008127;28;20073;-63
2022/01/10 10:19:50;;;;;;;19.40;12.35;;;;;;;4.70;100.00;96438.16;5008529;28;20477;-63
2022/01/10 10:22:20;;;;;;;23.75;13.27;;;;;;;4.64;100.00;96443.81;5009608;28;20082;-63
2022/01/10 10:24:48;;;;;;;18.70;13.35;;;;;;;4.62;100.00;96441.31;5006869;28;20077;-63
2022/01/10 10:27:17;;;;;;;21.85;12.77;;;;;;;4.88;100.00;96449.88;5007229;28;20065;-63
2022/01/10 10:30:09;;;;;;;20.85;11.80;;;;;;;4.73;100.00;96456.22;5007352;28;20084;-63
2022/01/10 10:32:39;;;;;;;20.58;12.70;;;;;;;4.74;100.00;96460.50;5007650;28;20072;-63
2022/01/10 10:35:12;;;;;;;18.08;11.05;;;;;;;4.32;100.00;96466.94;5005962;28;20461;-63
2022/01/10 10:37:42;;;;;;;20.65;11.52;;;;;;;4.34;100.00;96478.13;5004073;28;20763;-63
2022/01/10 10:40:14;;;;;;;19.65;12.65;;;;;;;4.40;100.00;96480.28;5009677;28;20069;-63
2022/01/10 10:42:44;;;;;;;21.15;11.85;;;;;;;4.44;100.00;96490.44;5010314;28;20405;-62
2022/01/10 10:45:13;;;;;;;15.65;10.40;;;;;;;4.37;100.00;96483.97;5006011;28;20062;-63
2022/01/10 10:47:45;;;;;;;17.60;11.20;;;;;;;4.51;100.00;96480.41;5011147;28;20097;-63
2022/01/10 10:50:13;;;;;;;16.92;11.68;;;;;;;4.62;100.00;96488.31;5006689;28;20484;-62
2022/01/10 10:52:42;;;;;;;20.52;12.45;;;;;;;4.88;100.00;96483.84;5005922;28;20399;-63
2022/01/10 10:55:13;;;;;;;15.27;10.23;;;;;;;4.46;100.00;96491.16;5006103;28;20089;-63
2022/01/10 10:58:00;;;;;;;20.02;11.68;;;;;;;4.58;100.00;96501.72;5012286;28;20056;-63
2022/01/10 11:00:29;;;;;;;19.58;11.57;;;;;;;4.59;100.00;96500.75;5005456;28;20069;-62
2022/01/10 11:02:59;;;;;;;18.67;12.65;;;;;;;4.70;100.00;96493.00;5005429;28;20088;-62
2022/01/10 11:05:29;;;;;;;19.23;12.38;;;;;;;4.86;100.00;96495.38;5006894;28;20068;-62
2022/01/10 11:07:58;;;;;;;19.02;12.75;;;;;;;5.08;100.00;96492.91;5007762;28;20073;-63
2022/01/10 11:10:26;;;;;;;20.00;11.38;;;;;;;4.98;100.00;96503.16;5007673;28;20080;-62
2022/01/10 11:12:56;;;;;;;21.52;11.50;;;;;;;4.93;100.00;96505.28;5005458;28;20463;-62
2022/01/10 11:15:25;;;;;;;22.00;12.30;;;;;;;5.33;100.00;96499.78;5006335;28;20685;-62
2022/01/10 11:17:55;;;;;;;18.70;11.35;;;;;;;5.00;100.00;96510.91;5002556;28;20133;-63
2022/01/10 11:20:41;;;;;;;18.85;11.02;;;;;;;4.99;100.00;96519.72;5004788;28;20062;-62
2022/01/10 11:23:29;;;;;;;18.52;11.23;;;;;;;5.09;100.00;96515.47;5003456;28;20065;-62
2022/01/10 11:25:58;;;;;;;19.20;11.57;;;;;;;5.26;100.00;96522.09;5004909;28;20069;-62
2022/01/10 11:28:28;;;;;;;17.55;10.25;;;;;;;4.94;100.00;96524.41;5011674;28;20104;-62
2022/01/10 11:31:02;;;;;;;20.13;11.67;;;;;;;5.11;100.00;96520.59;5005037;28;21261;-63
2022/01/10 11:33:32;;;;;;;19.23;10.13;;;;;;;5.14;100.00;96523.84;5004791;28;20457;-62
2022/01/10 11:36:05;;;;;;;16.95;10.07;;;;;;;4.97;100.00;96526.81;5001279;28;20531;-63
2022/01/10 11:38:36;;;;;;;15.98;11.20;;;;;;;5.21;100.00;96532.06;5005528;28;20068;-62
2022/01/10 11:41:07;;;;;;;21.13;12.13;;;;;;;5.18;100.00;96527.06;5006210;28;20073;-62
2022/01/10 11:43:41;;;;;;;20.35;12.70;;;;;;;5.36;100.00;96532.75;5005847;28;20082;-63